createdAt,value
2023-02-16T00:00:45.763Z,25.00
2023-02-16T00:05:48.422Z,25.90
2023-02-16T00:11:08.862Z,26.00
2023-02-16T00:16:28.914Z,25.13
2023-02-16T00:21:30.546Z,25.97
2023-02-16T00:26:34.695Z,25.52
2023-02-16T00:31:36.403Z,24.75
2023-02-16T00:36:38.110Z,25.75
2023-02-16T00:41:51.806Z,23.70
2023-02-16T00:46:53.608Z,24.47
2023-02-16T00:51:55.269Z,22.73
2023-02-16T00:56:57.491Z,24.60
2023-02-16T01:01:59.148Z,24.03
2023-02-16T01:07:19.391Z,23.75
2023-02-16T01:12:22.166Z,23.15
2023-02-16T01:17:25.227Z,23.17
2023-02-16T01:22:33.401Z,25.33
2023-02-16T01:27:37.599Z,23.33
2023-02-16T01:32:39.252Z,24.48
2023-02-16T01:37:42.576Z,24.42
2023-02-16T01:42:55.393Z,25.25
2023-02-16T01:48:04.976Z,23.08
2023-02-16T01:53:18.583Z,24.45
2023-02-16T01:58:35.282Z,24.42
2023-02-16T02:03:55.861Z,25.03
2023-02-16T02:09:23.200Z,23.33
2023-02-16T02:14:33.090Z,23.73
2023-02-16T02:19:48.062Z,23.95
2023-02-16T02:25:11.489Z,26.20
2023-02-16T02:30:37.747Z,25.80
2023-02-16T02:36:07.705Z,25.20
2023-02-16T02:41:44.282Z,22.73
2023-02-16T02:46:47.039Z,24.00
2023-02-16T02:51:50.201Z,22.55
2023-02-16T02:57:19.248Z,24.77
2023-02-16T03:02:24.196Z,23.70
2023-02-16T03:07:46.662Z,24.27
2023-02-16T03:12:48.413Z,22.90
2023-02-16T03:18:12.330Z,21.70
2023-02-16T03:23:32.764Z,21.77
2023-02-16T03:28:54.513Z,24.23
2023-02-16T03:33:56.466Z,24.48
2023-02-16T03:38:58.819Z,23.60
2023-02-16T03:44:00.838Z,25.08
2023-02-16T03:49:02.664Z,23.48
2023-02-16T03:54:04.269Z,25.27
2023-02-16T03:59:06.031Z,23.90
2023-02-16T04:04:07.667Z,22.58
2023-02-16T04:09:09.303Z,23.48
2023-02-16T04:14:10.931Z,20.27
2023-02-16T04:19:12.591Z,20.70
2023-02-16T04:24:14.193Z,21.60
2023-02-16T04:29:16.066Z,19.45
2023-02-16T04:34:17.733Z,20.92
2023-02-16T04:39:20.376Z,22.55
2023-02-16T04:44:22.047Z,23.60
2023-02-16T04:49:23.711Z,22.05
2023-02-16T04:54:25.329Z,21.43
2023-02-16T04:59:27.267Z,22.47
2023-02-16T05:04:29.007Z,22.40
2023-02-16T05:09:30.638Z,27.97
2023-02-16T05:14:43.381Z,27.92
2023-02-16T05:19:47.551Z,27.40
2023-02-16T05:24:49.370Z,27.40
2023-02-16T05:29:51.574Z,27.25
2023-02-16T05:34:53.216Z,25.15
2023-02-16T05:39:54.845Z,25.05
2023-02-16T05:44:56.455Z,23.70
2023-02-16T05:49:58.075Z,24.90
2023-02-16T05:54:59.706Z,24.70
2023-02-16T06:00:01.361Z,24.03
2023-02-16T06:05:06.537Z,28.07
2023-02-16T06:10:08.797Z,23.57
2023-02-16T06:15:11.017Z,24.10
2023-02-16T06:20:12.885Z,24.83
2023-02-16T06:25:14.602Z,24.13
2023-02-16T06:30:16.698Z,25.30
2023-02-16T06:35:18.643Z,25.87
2023-02-16T06:40:20.783Z,23.43
2023-02-16T06:45:22.395Z,22.07
2023-02-16T06:50:24.027Z,22.40
2023-02-16T06:55:25.622Z,24.93
2023-02-16T07:00:27.390Z,23.80
2023-02-16T07:05:29.077Z,22.37
2023-02-16T07:10:40.377Z,21.70
2023-02-16T07:15:50.485Z,22.25
2023-02-16T07:20:52.170Z,24.13
2023-02-16T07:25:53.898Z,22.40
2023-02-16T07:30:55.582Z,22.98
2023-02-16T07:35:57.228Z,25.35
2023-02-16T07:40:59.337Z,23.00
2023-02-16T07:46:01.634Z,24.98
2023-02-16T07:51:04.212Z,24.47
2023-02-16T07:56:06.431Z,25.88
2023-02-16T08:01:09.680Z,26.30
2023-02-16T08:06:11.874Z,24.33
2023-02-16T08:11:19.704Z,24.30
2023-02-16T08:16:24.390Z,23.27
2023-02-16T08:21:29.967Z,23.90
2023-02-16T08:26:41.325Z,22.85
2023-02-16T08:31:43.055Z,24.55
2023-02-16T08:36:47.375Z,23.15
2023-02-16T08:41:50.205Z,23.42
2023-02-16T08:46:55.117Z,22.15
2023-02-16T08:51:58.672Z,20.73
2023-02-16T08:57:02.993Z,23.40
2023-02-16T09:02:04.816Z,21.98
2023-02-16T09:07:06.458Z,23.92
2023-02-16T09:12:08.101Z,22.83
2023-02-16T09:17:09.788Z,20.95
2023-02-16T09:22:12.094Z,21.38
2023-02-16T09:27:13.734Z,21.45
2023-02-16T09:32:15.540Z,20.45
2023-02-16T09:37:17.170Z,20.65
2023-02-16T09:42:39.907Z,19.55
2023-02-16T09:47:45.100Z,19.55
2023-02-16T09:53:08.624Z,20.13
2023-02-16T09:58:21.545Z,18.60
2023-02-16T10:03:43.393Z,18.70
2023-02-16T10:09:07.987Z,19.02
2023-02-16T10:14:37.444Z,17.20
2023-02-16T10:19:47.240Z,18.52
2023-02-16T10:24:57.649Z,18.88
2023-02-16T10:29:59.407Z,17.85
2023-02-16T10:35:15.279Z,14.05
2023-02-16T10:40:34.411Z,13.98
2023-02-16T10:45:59.577Z,14.80
2023-02-16T10:51:03.552Z,12.73
2023-02-16T10:56:39.372Z,12.38
2023-02-16T11:01:46.349Z,13.90
2023-02-16T11:07:20.948Z,13.65
2023-02-16T11:12:32.476Z,14.73
2023-02-16T11:17:52.685Z,14.18
2023-02-16T11:23:06.706Z,14.73
2023-02-16T11:28:11.407Z,14.25
2023-02-16T11:33:26.923Z,14.13
2023-02-16T11:38:32.867Z,14.77
2023-02-16T11:43:38.907Z,15.52
2023-02-16T11:48:40.722Z,15.05
2023-02-16T11:53:45.169Z,15.95
2023-02-16T11:59:17.334Z,15.27
2023-02-16T12:04:44.956Z,14.80
2023-02-16T12:10:08.851Z,14.93
2023-02-16T12:15:57.210Z,16.67
2023-02-16T12:21:29.709Z,15.50
2023-02-16T12:26:41.588Z,17.00
2023-02-16T12:32:04.882Z,15.75
2023-02-16T12:37:15.906Z,16.95
2023-02-16T12:42:41.904Z,14.98
2023-02-16T12:47:54.132Z,14.25
2023-02-16T12:53:14.143Z,15.40
2023-02-16T12:58:15.870Z,15.80
2023-02-16T13:03:40.544Z,15.50
2023-02-16T13:09:10.583Z,15.85
2023-02-16T13:14:17.837Z,15.68
2023-02-16T13:19:19.906Z,15.27
2023-02-16T13:24:50.981Z,13.77
2023-02-16T13:30:17.586Z,15.05
2023-02-16T13:35:49.312Z,15.30
2023-02-16T13:41:30.459Z,14.60
2023-02-16T13:46:37.835Z,17.65
2023-02-16T13:51:46.281Z,14.45
2023-02-16T13:56:48.157Z,14.95
2023-02-16T14:01:53.563Z,13.82
2023-02-16T14:06:58.165Z,14.23
2023-02-16T14:12:02.231Z,13.18
2023-02-16T14:17:19.331Z,12.68
2023-02-16T14:22:31.990Z,11.20
2023-02-16T14:28:00.500Z,12.38
2023-02-16T14:33:17.222Z,11.27
2023-02-16T14:38:27.699Z,11.73
2023-02-16T14:43:39.626Z,10.45
2023-02-16T14:49:19.526Z,10.65
2023-02-16T14:54:45.697Z,10.48
2023-02-16T15:00:01.823Z,10.73
2023-02-16T15:05:37.336Z,10.90
2023-02-16T15:10:40.302Z,10.77
2023-02-16T15:15:48.884Z,11.00
2023-02-16T15:20:53.190Z,11.60
2023-02-16T15:25:59.473Z,12.30
2023-02-16T15:31:06.949Z,12.18
2023-02-16T15:36:09.047Z,12.00
2023-02-16T15:41:15.425Z,11.27
2023-02-16T15:46:32.472Z,11.45
2023-02-16T15:51:35.037Z,11.73
2023-02-16T15:56:48.544Z,11.00
2023-02-16T16:01:57.591Z,12.80
2023-02-16T16:07:00.167Z,12.90
2023-02-16T16:12:06.816Z,12.05
2023-02-16T16:17:14.133Z,12.70
2023-02-16T16:22:30.165Z,10.75
2023-02-16T16:27:38.160Z,13.20
2023-02-16T16:32:39.798Z,13.52
2023-02-16T16:37:41.572Z,13.75
2023-02-16T16:43:03.091Z,13.95
2023-02-16T16:48:16.483Z,12.05
2023-02-16T16:53:30.279Z,11.48
2023-02-16T16:58:31.913Z,12.27
2023-02-16T17:03:33.529Z,11.68
2023-02-16T17:08:35.257Z,11.68
2023-02-16T17:13:36.912Z,10.90
2023-02-16T17:18:39.702Z,12.30
2023-02-16T17:23:50.414Z,11.55
2023-02-16T17:28:54.380Z,11.10
2023-02-16T17:33:56.176Z,12.07
2023-02-16T17:38:58.205Z,12.35
2023-02-16T17:43:59.875Z,11.95
2023-02-16T17:49:01.540Z,15.55
2023-02-16T17:54:06.450Z,11.80
2023-02-16T17:59:10.236Z,13.55
2023-02-16T18:04:11.888Z,12.00
2023-02-16T18:09:20.644Z,11.57
2023-02-16T18:14:22.302Z,10.40
2023-02-16T18:19:23.941Z,11.57
2023-02-16T18:24:26.164Z,10.45
2023-02-16T18:29:27.925Z,9.00
2023-02-16T18:34:31.471Z,9.02
2023-02-16T18:39:33.361Z,9.90
2023-02-16T18:44:35.412Z,8.98
2023-02-16T18:49:37.058Z,9.13
2023-02-16T18:54:38.760Z,8.55
2023-02-16T18:59:40.558Z,10.10
2023-02-16T19:04:42.269Z,8.68
2023-02-16T19:09:43.913Z,8.50
2023-02-16T19:14:45.684Z,8.93
2023-02-16T19:19:47.432Z,8.55
2023-02-16T19:24:50.389Z,10.43
2023-02-16T19:29:52.170Z,10.25
2023-02-16T19:34:53.892Z,11.05
2023-02-16T19:39:55.651Z,11.93
2023-02-16T19:44:57.324Z,12.75
2023-02-16T19:49:59.192Z,12.35
2023-02-16T19:55:01.004Z,13.52
2023-02-16T20:00:04.964Z,13.45
2023-02-16T20:05:13.720Z,13.65
2023-02-16T20:10:15.343Z,13.57
2023-02-16T20:15:17.127Z,15.45
2023-02-16T20:20:19.046Z,14.52
2023-02-16T20:25:20.751Z,15.80
2023-02-16T20:30:25.268Z,16.40
2023-02-16T20:35:26.996Z,15.68
2023-02-16T20:40:28.612Z,15.30
2023-02-16T20:45:30.288Z,17.65
2023-02-16T20:50:31.890Z,17.27
2023-02-16T20:55:33.743Z,15.55
2023-02-16T21:00:35.416Z,15.20
2023-02-16T21:05:37.051Z,14.43
2023-02-16T21:10:38.699Z,14.90
2023-02-16T21:15:40.300Z,14.02
2023-02-16T21:20:41.895Z,14.95
2023-02-16T21:25:43.539Z,13.35
2023-02-16T21:30:45.141Z,15.05
2023-02-16T21:35:47.247Z,16.00
2023-02-16T21:41:07.187Z,14.93
2023-02-16T21:46:09.589Z,15.55
2023-02-16T21:51:12.682Z,13.73
2023-02-16T21:56:29.282Z,14.95
2023-02-16T22:01:33.801Z,14.68
2023-02-16T22:06:39.193Z,15.50
2023-02-16T22:11:41.146Z,13.60
2023-02-16T22:16:46.075Z,15.13
2023-02-16T22:21:48.435Z,13.95
2023-02-16T22:26:50.355Z,14.40
2023-02-16T22:31:52.027Z,14.40
2023-02-16T22:36:53.745Z,12.35
2023-02-16T22:41:55.359Z,12.75
2023-02-16T22:46:57.052Z,12.05
2023-02-16T22:51:58.738Z,11.40
2023-02-16T22:57:01.268Z,11.43
2023-02-16T23:02:02.884Z,11.63
2023-02-16T23:07:04.564Z,11.70
2023-02-16T23:12:06.566Z,11.75
2023-02-16T23:17:08.292Z,11.70
2023-02-16T23:22:09.919Z,11.38
2023-02-16T23:27:11.657Z,11.82
2023-02-16T23:32:13.250Z,12.50
2023-02-16T23:37:14.876Z,11.57
2023-02-16T23:42:16.496Z,12.02
2023-02-16T23:47:18.210Z,10.30
2023-02-16T23:52:19.853Z,11.88
2023-02-16T23:57:21.492Z,11.60
